Time;durP1;ratioP1;P1;durP2;ratioP2;P2;SDS_P1;SDS_P2;PMS_P1;PMS_P2;Temp;Humidity;BMP_temperature;BMP_pressure;BME280_temperature;BME280_humidity;BME280_pressure;Samples;Min_cycle;Max_cycle;Signal;HPM_P1;HPM_P2
2023/01/18 00:01:08;;;;;;;9.53;8.30;;;3.80;99.90;;;;;;5057866;28;20523;-70
2023/01/18 00:03:35;;;;;;;13.30;8.43;;;3.90;99.90;;;;;;5077224;28;20703;-70
2023/01/18 00:06:03;;;;;;;9.70;7.40;;;4.10;99.90;;;;;;5075720;28;20864;-70
2023/01/18 00:08:30;;;;;;;8.37;7.57;;;4.10;99.90;;;;;;5076160;28;20439;-69
2023/01/18 00:11:08;;;;;;;7.50;6.67;;;3.80;99.90;;;;;;5075836;28;20482;-72
2023/01/18 00:13:34;;;;;;;10.77;9.50;;;3.30;99.90;;;;;;5079496;28;20399;-72
2023/01/18 00:16:04;;;;;;;8.97;7.83;;;3.40;99.90;;;;;;5080425;28;20435;-72
2023/01/18 00:18:30;;;;;;;10.70;7.87;;;3.60;99.90;;;;;;5074894;28;20492;-70
2023/01/18 00:21:02;;;;;;;7.63;6.77;;;3.60;99.90;;;;;;5075226;28;20905;-72
2023/01/18 00:23:28;;;;;;;7.60;6.90;;;3.60;99.90;;;;;;5075452;28;20147;-71
2023/01/18 00:26:02;;;;;;;11.47;9.60;;;3.40;99.90;;;;;;5075457;28;20938;-71
2023/01/18 00:28:28;;;;;;;9.30;8.40;;;3.70;99.90;;;;;;5075653;28;20423;-71
2023/01/18 00:30:53;;;;;;;9.77;8.27;;;3.60;99.90;;;;;;5074992;28;20424;-71
2023/01/18 00:33:19;;;;;;;8.80;8.00;;;3.30;99.90;;;;;;5074693;28;20428;-71
2023/01/18 00:35:57;;;;;;;9.70;8.83;;;3.20;99.90;;;;;;5074620;28;20171;-71
2023/01/18 00:38:23;;;;;;;11.70;9.30;;;3.10;99.90;;;;;;5075268;28;20154;-71
2023/01/18 00:40:48;;;;;;;9.90;8.90;;;3.20;99.90;;;;;;5057188;28;20439;-72
2023/01/18 00:45:58;;;;;;;11.57;10.37;;;3.50;99.90;;;;;;5075409;28;20216;-72
2023/01/18 00:48:23;;;;;;;12.63;11.00;;;3.30;99.90;;;;;;5074574;28;20911;-72
2023/01/18 00:50:49;;;;;;;13.13;11.57;;;3.20;99.90;;;;;;5074304;28;20178;-71
2023/01/18 00:53:14;;;;;;;17.20;14.30;;;3.40;99.90;;;;;;5059281;28;20536;-71
2023/01/18 00:55:40;;;;;;;19.87;15.30;;;3.50;99.90;;;;;;5074510;28;20163;-72
2023/01/18 00:58:06;;;;;;;24.60;18.70;;;3.70;99.90;;;;;;5074494;28;20198;-72
2023/01/18 01:00:32;;;;;;;17.83;12.57;;;3.60;99.90;;;;;;5074804;28;20604;-72
2023/01/18 01:02:58;;;;;;;16.80;13.93;;;3.70;99.90;;;;;;5075051;28;20186;-72
2023/01/18 01:08:16;;;;;;;19.03;13.80;;;3.70;99.90;;;;;;5075546;28;20384;-72
2023/01/18 01:10:47;;;;;;;14.70;13.03;;;3.60;99.90;;;;;;5055948;28;20451;-71
2023/01/18 01:27:10;;;;;;;12.80;11.50;;;3.80;99.90;;;;;;5074001;28;20383;-72
2023/01/18 01:29:35;;;;;;;12.73;11.27;;;3.80;99.90;;;;;;5073870;28;20427;-71
2023/01/18 01:32:02;;;;;;;12.43;11.13;;;3.70;99.90;;;;;;5073621;28;20452;-71
2023/01/18 01:34:28;;;;;;;12.87;11.03;;;3.80;99.90;;;;;;5072591;28;20941;-71
2023/01/18 01:36:54;;;;;;;12.97;11.60;;;3.90;99.90;;;;;;5055459;28;20452;-71
2023/01/18 01:39:20;;;;;;;14.00;12.57;;;4.00;99.90;;;;;;5073522;28;20407;-71
2023/01/18 01:41:46;;;;;;;12.90;11.60;;;4.00;99.90;;;;;;5073187;28;20451;-71
2023/01/18 01:44:18;;;;;;;15.83;13.80;;;4.00;99.90;;;;;;5073241;28;20244;-70
2023/01/18 01:46:58;;;;;;;13.83;12.43;;;3.90;99.90;;;;;;5073790;28;20169;-71
2023/01/18 01:49:31;;;;;;;12.40;11.10;;;4.10;99.90;;;;;;5072563;28;20546;-71
2023/01/18 01:52:04;;;;;;;13.13;11.73;;;3.90;99.90;;;;;;5073304;28;20815;-70
2023/01/18 01:54:40;;;;;;;14.40;12.90;;;3.80;99.90;;;;;;5073518;28;20404;-71
2023/01/18 01:57:11;;;;;;;15.43;12.77;;;3.70;99.90;;;;;;5072473;28;20490;-71
2023/01/18 01:59:42;;;;;;;15.07;13.13;;;3.70;99.90;;;;;;5073718;28;20380;-71
2023/01/18 02:02:09;;;;;;;23.90;18.07;;;3.80;99.90;;;;;;5055341;28;20436;-71
2023/01/18 02:04:36;;;;;;;11.63;10.53;;;3.80;99.90;;;;;;5073057;28;20498;-71
2023/01/18 02:07:01;;;;;;;10.87;9.77;;;3.80;99.90;;;;;;5073391;28;20775;-71
2023/01/18 02:09:27;;;;;;;12.43;11.20;;;3.70;99.90;;;;;;5073258;28;20408;-71
2023/01/18 02:11:54;;;;;;;12.93;11.20;;;3.70;99.90;;;;;;5073109;28;20196;-71
2023/01/18 02:14:24;;;;;;;12.77;11.43;;;3.50;99.90;;;;;;5073554;28;20170;-72
2023/01/18 02:17:05;;;;;;;13.77;12.30;;;3.50;99.90;;;;;;5073194;28;20444;-71
2023/01/18 02:19:48;;;;;;;14.60;12.43;;;3.50;99.90;;;;;;5073168;28;20385;-71
2023/01/18 02:22:25;;;;;;;13.97;12.00;;;3.40;99.90;;;;;;5073028;28;20420;-71
2023/01/18 02:25:15;;;;;;;10.97;9.87;;;3.60;99.90;;;;;;5073795;28;20372;-71
2023/01/18 02:27:48;;;;;;;12.83;11.47;;;3.60;99.90;;;;;;5073214;28;20412;-71
2023/01/18 02:30:42;;;;;;;13.40;11.40;;;3.70;99.90;;;;;;5055123;28;20782;-71
2023/01/18 02:33:38;;;;;;;13.00;11.23;;;3.60;99.90;;;;;;5063641;28;20413;-71
2023/01/18 02:36:05;;;;;;;12.50;10.30;;;3.50;99.90;;;;;;5054969;28;20404;-72
2023/01/18 02:38:40;;;;;;;11.87;10.23;;;3.40;99.90;;;;;;5073609;28;20411;-72
2023/01/18 02:41:10;;;;;;;13.00;10.47;;;3.40;99.90;;;;;;5072863;28;20544;-71
2023/01/18 02:46:30;;;;;;;11.70;10.50;;;3.30;99.90;;;;;;5077464;28;20383;-72
2023/01/18 02:48:57;;;;;;;12.13;10.50;;;3.20;99.90;;;;;;5078413;28;20416;-71
2023/01/18 02:51:23;;;;;;;11.33;9.40;;;3.20;99.90;;;;;;5074291;28;20512;-72
2023/01/18 02:53:49;;;;;;;12.17;10.90;;;3.30;99.90;;;;;;5073049;28;20408;-71
2023/01/18 02:56:25;;;;;;;12.80;11.50;;;3.20;99.90;;;;;;5071521;28;20420;-71
2023/01/18 02:59:20;;;;;;;12.93;11.60;;;3.20;99.90;;;;;;5073256;28;20157;-72
2023/01/18 03:02:00;;;;;;;12.93;11.00;;;3.10;99.90;;;;;;5078675;28;20497;-72
2023/01/18 03:04:40;;;;;;;14.73;12.50;;;3.30;99.90;;;;;;5097487;28;20378;-71
2023/01/18 03:07:36;;;;;;;11.37;10.17;;;3.20;99.90;;;;;;5086411;28;20411;-72
2023/01/18 03:10:08;;;;;;;11.67;10.00;;;3.10;99.90;;;;;;5076289;28;20397;-71
2023/01/18 03:12:46;;;;;;;12.50;11.10;;;2.90;99.90;;;;;;5076027;28;20436;-72
2023/01/18 03:15:19;;;;;;;10.73;9.63;;;3.10;99.90;;;;;;5058649;28;20802;-71
2023/01/18 03:17:56;;;;;;;12.20;10.10;;;3.10;99.90;;;;;;5076399;28;20552;-72
2023/01/18 03:20:29;;;;;;;9.90;8.90;;;3.00;99.90;;;;;;5076847;28;20421;-72
2023/01/18 03:25:58;;;;;;;11.00;9.37;;;3.00;99.90;;;;;;5076684;28;20937;-72
2023/01/18 03:34:21;;;;;;;12.90;11.17;;;3.00;99.90;;;;;;5077357;28;20376;-71
2023/01/18 03:36:53;;;;;;;16.00;12.77;;;3.00;99.90;;;;;;5058368;28;20534;-71
2023/01/18 03:39:22;;;;;;;13.87;11.83;;;2.90;99.90;;;;;;5076364;28;20384;-72
2023/01/18 03:41:52;;;;;;;11.87;10.60;;;3.00;99.90;;;;;;5075979;28;20497;-71
2023/01/18 03:44:43;;;;;;;14.83;11.97;;;3.00;99.90;;;;;;5076081;28;20400;-70
2023/01/18 03:47:09;;;;;;;14.23;11.77;;;3.10;99.90;;;;;;5065238;28;20420;-71
2023/01/18 03:49:35;;;;;;;13.10;10.80;;;3.10;99.90;;;;;;5076443;28;20457;-71
2023/01/18 03:52:18;;;;;;;17.03;13.50;;;3.00;99.90;;;;;;5075901;28;20649;-71
2023/01/18 03:55:18;;;;;;;19.90;13.10;;;2.90;99.90;;;;;;5075043;28;20412;-71
2023/01/18 03:58:04;;;;;;;15.47;12.77;;;2.90;99.90;;;;;;5076264;28;20526;-70
2023/01/18 04:00:30;;;;;;;14.20;11.90;;;2.60;99.90;;;;;;5055869;28;20803;-71
2023/01/18 04:02:56;;;;;;;13.73;12.13;;;2.50;99.90;;;;;;5075523;28;20396;-71
2023/01/18 04:05:22;;;;;;;16.57;13.87;;;2.40;99.90;;;;;;5074035;28;20424;-71
2023/01/18 04:07:49;;;;;;;13.70;11.30;;;2.50;99.90;;;;;;5075499;28;20403;-71
2023/01/18 04:10:14;;;;;;;14.47;11.93;;;2.60;99.90;;;;;;5075494;28;20181;-71
2023/01/18 04:12:40;;;;;;;12.80;11.37;;;2.80;99.90;;;;;;5074924;28;20783;-70
2023/01/18 04:15:06;;;;;;;13.97;12.50;;;2.70;99.90;;;;;;5075268;28;20193;-71
2023/01/18 04:17:31;;;;;;;16.70;13.23;;;2.80;99.90;;;;;;5075506;28;20201;-71
2023/01/18 04:19:57;;;;;;;16.60;14.20;;;2.90;99.90;;;;;;5074925;28;20396;-71
2023/01/18 04:22:22;;;;;;;12.90;11.30;;;3.10;99.90;;;;;;5075242;28;20256;-71
2023/01/18 04:24:48;;;;;;;14.80;12.10;;;2.90;99.90;;;;;;5075061;28;20521;-72
2023/01/18 04:27:14;;;;;;;15.83;13.07;;;2.90;99.90;;;;;;5075194;28;20191;-71
2023/01/18 04:29:39;;;;;;;16.10;13.80;;;3.10;99.90;;;;;;5075150;28;20299;-71
2023/01/18 04:32:05;;;;;;;15.47;12.07;;;3.20;99.90;;;;;;5056863;28;20231;-71
2023/01/18 04:34:31;;;;;;;14.10;12.60;;;3.00;99.90;;;;;;5075251;28;20231;-71
2023/01/18 04:36:57;;;;;;;17.87;15.23;;;2.70;99.90;;;;;;5074833;28;20595;-71
2023/01/18 04:39:22;;;;;;;19.80;16.33;;;2.70;99.90;;;;;;5057017;28;20497;-71
2023/01/18 04:41:48;;;;;;;15.70;13.03;;;2.80;99.90;;;;;;5074556;28;20206;-71
2023/01/18 04:44:14;;;;;;;20.97;15.77;;;2.90;99.90;;;;;;5100767;22;20182;-71
2023/01/18 04:46:40;;;;;;;18.30;15.07;;;2.90;99.90;;;;;;5037018;28;20662;-70
2023/01/18 04:49:09;;;;;;;13.50;12.10;;;2.80;99.90;;;;;;5054969;28;20405;-70
2023/01/18 04:51:37;;;;;;;13.10;11.70;;;2.90;99.90;;;;;;5075293;28;20172;-70
2023/01/18 04:54:03;;;;;;;16.10;13.27;;;2.80;99.90;;;;;;5074725;28;20405;-70
2023/01/18 04:56:28;;;;;;;13.93;12.23;;;2.80;99.90;;;;;;5061859;28;21021;-70
2023/01/18 04:58:54;;;;;;;14.67;13.20;;;2.70;99.90;;;;;;5054105;28;20249;-70
2023/01/18 05:01:20;;;;;;;14.50;12.87;;;2.70;99.90;;;;;;5054197;28;20213;-70
2023/01/18 05:03:46;;;;;;;16.13;13.27;;;2.60;99.90;;;;;;5054587;28;20484;-70
2023/01/18 05:06:14;;;;;;;16.20;13.70;;;2.70;99.90;;;;;;5063318;28;20511;-70
2023/01/18 05:08:39;;;;;;;13.60;12.20;;;2.80;99.90;;;;;;5056809;28;20549;-69
2023/01/18 05:11:14;;;;;;;14.73;12.87;;;2.60;99.90;;;;;;5054594;28;20397;-71
2023/01/18 05:13:40;;;;;;;14.30;12.80;;;2.60;99.90;;;;;;5037289;28;20455;-71
2023/01/18 05:16:11;;;;;;;14.67;12.40;;;2.80;99.90;;;;;;5054180;28;20432;-71
2023/01/18 05:18:36;;;;;;;14.60;12.93;;;2.90;99.90;;;;;;5054453;28;20392;-69
2023/01/18 05:21:02;;;;;;;12.37;11.13;;;2.90;99.90;;;;;;5054025;28;20406;-70
2023/01/18 05:23:28;;;;;;;11.80;10.60;;;2.80;99.90;;;;;;5036536;28;20167;-69
2023/01/18 05:25:55;;;;;;;11.23;10.20;;;2.70;99.90;;;;;;5054056;28;20191;-69
2023/01/18 05:28:22;;;;;;;11.60;10.50;;;2.50;99.90;;;;;;5054435;28;20582;-70
2023/01/18 05:30:49;;;;;;;13.10;11.70;;;2.60;99.90;;;;;;5054006;28;20548;-70
2023/01/18 05:33:15;;;;;;;9.40;8.60;;;2.60;99.90;;;;;;5054089;28;20440;-70
2023/01/18 05:35:45;;;;;;;11.20;9.20;;;2.60;99.90;;;;;;5064029;28;20972;-70
2023/01/18 05:38:11;;;;;;;13.40;10.53;;;2.40;99.90;;;;;;5073754;28;20432;-69
2023/01/18 05:40:36;;;;;;;25.73;18.47;;;2.20;99.90;;;;;;5056537;28;20835;-70
2023/01/18 05:43:02;;;;;;;12.40;10.70;;;2.10;99.90;;;;;;5026948;28;20178;-70
2023/01/18 05:45:27;;;;;;;9.27;8.20;;;2.20;99.90;;;;;;5045910;28;20286;-70
2023/01/18 05:47:53;;;;;;;8.37;7.60;;;2.30;99.90;;;;;;5053808;28;20174;-70
2023/01/18 05:50:19;;;;;;;7.57;6.87;;;2.40;99.90;;;;;;5043928;28;20947;-72
2023/01/18 05:52:45;;;;;;;9.27;8.37;;;2.30;99.90;;;;;;5044658;28;20443;-71
2023/01/18 05:55:10;;;;;;;6.93;6.33;;;2.30;99.90;;;;;;5044837;28;20699;-71
2023/01/18 05:57:36;;;;;;;9.30;8.40;;;2.30;99.90;;;;;;5044560;28;20198;-73
2023/01/18 06:00:02;;;;;;;8.40;7.57;;;2.40;99.90;;;;;;5045353;28;20524;-69
2023/01/18 06:02:28;;;;;;;7.80;6.60;;;2.50;99.90;;;;;;5053917;28;20596;-69
2023/01/18 06:04:53;;;;;;;9.57;8.70;;;2.40;99.90;;;;;;5057477;28;20428;-69
2023/01/18 06:07:19;;;;;;;7.07;6.03;;;2.40;99.90;;;;;;5070503;28;20273;-72
2023/01/18 06:09:44;;;;;;;7.77;7.07;;;2.50;99.90;;;;;;5072968;28;20166;-69
2023/01/18 06:12:10;;;;;;;9.60;8.60;;;2.50;99.90;;;;;;5073467;28;20177;-69
2023/01/18 06:14:35;;;;;;;8.53;7.73;;;2.60;99.90;;;;;;5073186;28;20189;-70
2023/01/18 06:17:01;;;;;;;9.70;8.67;;;2.50;99.90;;;;;;5072946;28;20194;-70
2023/01/18 06:19:27;;;;;;;7.93;7.20;;;2.70;99.90;;;;;;5073275;28;20298;-70
2023/01/18 06:21:53;;;;;;;7.50;6.70;;;2.60;99.90;;;;;;5072899;28;20166;-70
2023/01/18 06:24:18;;;;;;;7.93;7.13;;;2.40;99.90;;;;;;5072807;28;20170;-69
2023/01/18 06:26:44;;;;;;;10.53;9.53;;;2.40;99.90;;;;;;5073478;28;20404;-69
2023/01/18 06:29:09;;;;;;;9.00;8.20;;;2.50;99.90;;;;;;5072925;28;20170;-69
2023/01/18 06:31:35;;;;;;;6.80;6.07;;;2.50;99.90;;;;;;5073541;28;20170;-69
2023/01/18 06:34:08;;;;;;;7.93;7.13;;;2.50;99.90;;;;;;5075882;28;20170;-70
2023/01/18 06:36:37;;;;;;;8.10;7.20;;;2.40;99.90;;;;;;5054989;28;20478;-70
2023/01/18 06:39:03;;;;;;;7.10;6.40;;;2.60;99.90;;;;;;5072249;28;20898;-70
2023/01/18 06:41:28;;;;;;;8.60;7.80;;;2.60;99.90;;;;;;5073060;28;20404;-69
2023/01/18 06:43:54;;;;;;;6.93;6.30;;;2.70;99.90;;;;;;5072975;28;20454;-70
2023/01/18 06:46:20;;;;;;;5.80;5.30;;;2.60;99.90;;;;;;5072570;28;20322;-69
2023/01/18 06:48:46;;;;;;;7.80;7.00;;;2.40;99.90;;;;;;5054795;28;20170;-70
2023/01/18 06:51:11;;;;;;;7.80;7.00;;;2.40;99.90;;;;;;5055365;28;20457;-70
2023/01/18 06:53:38;;;;;;;11.90;7.80;;;2.40;99.90;;;;;;5072058;28;20170;-70
2023/01/18 06:56:04;;;;;;;10.07;8.03;;;2.30;99.90;;;;;;5072602;28;20226;-70
2023/01/18 06:58:31;;;;;;;7.50;6.80;;;2.40;99.90;;;;;;5054534;28;20831;-70
2023/01/18 07:00:59;;;;;;;10.50;8.67;;;2.40;99.90;;;;;;5059174;28;20401;-70
2023/01/18 07:03:26;;;;;;;9.13;8.23;;;2.50;99.90;;;;;;5034712;28;20420;-70
2023/01/18 07:05:55;;;;;;;9.00;8.10;;;2.50;99.90;;;;;;5034524;28;20940;-70
2023/01/18 07:08:22;;;;;;;11.70;10.37;;;2.30;99.90;;;;;;5066852;28;20432;-70
2023/01/18 07:10:48;;;;;;;10.80;9.70;;;2.40;99.90;;;;;;5072563;28;20954;-70
2023/01/18 07:13:14;;;;;;;10.30;9.30;;;2.40;99.90;;;;;;5072862;28;20408;-70
2023/01/18 07:15:40;;;;;;;9.73;8.70;;;2.40;99.90;;;;;;5072290;28;20422;-70
2023/01/18 07:18:05;;;;;;;9.20;8.30;;;2.30;99.90;;;;;;5071198;28;20269;-70
2023/01/18 07:20:31;;;;;;;11.67;10.57;;;2.20;99.90;;;;;;5072758;28;20690;-70
2023/01/18 07:22:57;;;;;;;10.10;8.90;;;2.30;99.90;;;;;;5054127;28;20198;-69
2023/01/18 07:25:23;;;;;;;10.63;9.47;;;2.30;99.90;;;;;;5072462;28;20182;-70
2023/01/18 07:27:49;;;;;;;11.30;9.40;;;2.30;99.90;;;;;;5072315;28;20400;-70
2023/01/18 07:30:15;;;;;;;12.07;10.90;;;2.30;99.90;;;;;;5072659;28;20465;-70
2023/01/18 07:32:48;;;;;;;10.73;9.33;;;2.40;99.90;;;;;;5070888;28;20689;-70
2023/01/18 07:35:16;;;;;;;10.43;8.87;;;2.50;99.90;;;;;;5072175;28;20424;-70
2023/01/18 07:37:46;;;;;;;10.83;9.20;;;2.40;99.90;;;;;;5071934;28;20443;-70
2023/01/18 07:40:14;;;;;;;12.43;9.60;;;2.30;99.90;;;;;;5072200;28;20407;-70
2023/01/18 07:42:39;;;;;;;8.80;8.00;;;2.30;99.90;;;;;;5054315;28;20404;-70
2023/01/18 07:45:07;;;;;;;10.80;9.70;;;2.30;99.90;;;;;;5073558;28;20807;-70
2023/01/18 07:47:34;;;;;;;9.33;8.23;;;2.40;99.90;;;;;;5073437;28;20275;-71
2023/01/18 07:50:00;;;;;;;11.10;10.00;;;2.20;99.90;;;;;;5057694;28;20446;-70
2023/01/18 07:52:25;;;;;;;10.90;9.80;;;2.20;99.90;;;;;;5075222;28;20424;-70
2023/01/18 07:54:51;;;;;;;11.20;10.10;;;2.30;99.90;;;;;;5075441;28;20193;-70
2023/01/18 07:57:17;;;;;;;11.90;10.37;;;2.30;99.90;;;;;;5075473;28;20226;-71
2023/01/18 07:59:42;;;;;;;12.97;11.53;;;2.20;99.90;;;;;;5075069;28;20448;-70
2023/01/18 08:02:11;;;;;;;11.70;10.50;;;2.30;99.90;;;;;;5075493;28;20158;-70
2023/01/18 08:04:38;;;;;;;11.53;10.30;;;2.20;99.90;;;;;;5075272;28;20281;-70
2023/01/18 08:07:04;;;;;;;10.03;9.03;;;2.30;99.90;;;;;;5073797;28;20495;-75
2023/01/18 08:09:32;;;;;;;9.30;8.50;;;2.20;99.90;;;;;;5056577;28;20444;-74
2023/01/18 08:11:58;;;;;;;10.50;9.47;;;2.20;99.90;;;;;;5055534;28;20427;-72
2023/01/18 08:14:24;;;;;;;12.23;10.93;;;2.20;99.90;;;;;;5055349;28;20440;-69
2023/01/18 08:16:49;;;;;;;12.60;11.27;;;2.30;99.90;;;;;;5055197;28;20444;-69
2023/01/18 08:19:16;;;;;;;12.47;11.27;;;2.30;99.90;;;;;;5055382;28;20175;-69
2023/01/18 08:21:41;;;;;;;11.73;10.53;;;2.40;99.90;;;;;;5055111;28;20167;-69
2023/01/18 08:24:07;;;;;;;13.17;10.93;;;2.30;99.90;;;;;;5054604;28;20420;-69
2023/01/18 08:26:33;;;;;;;16.30;12.97;;;2.20;99.90;;;;;;5037280;28;20182;-70
2023/01/18 08:28:59;;;;;;;14.93;13.33;;;2.10;99.90;;;;;;5037307;28;20324;-69
2023/01/18 08:31:25;;;;;;;15.30;11.27;;;2.20;99.90;;;;;;5055154;28;20175;-69
2023/01/18 08:33:51;;;;;;;12.73;11.00;;;2.20;99.90;;;;;;5067140;28;20811;-72
2023/01/18 08:36:22;;;;;;;10.33;9.43;;;2.30;99.90;;;;;;5074982;28;20189;-72
2023/01/18 08:38:56;;;;;;;12.07;10.77;;;2.30;99.90;;;;;;5056702;28;20455;-72
2023/01/18 08:41:27;;;;;;;11.27;10.17;;;2.30;99.90;;;;;;5075229;28;20395;-72
2023/01/18 08:43:53;;;;;;;13.03;11.03;;;2.30;99.90;;;;;;5056923;28;20400;-72
2023/01/18 08:46:19;;;;;;;12.10;10.90;;;2.40;99.90;;;;;;5074659;28;20922;-69
2023/01/18 08:48:51;;;;;;;11.60;9.87;;;2.40;99.90;;;;;;5074328;28;20408;-71
2023/01/18 08:51:17;;;;;;;12.00;9.73;;;2.50;99.90;;;;;;5074855;28;20385;-72
2023/01/18 08:53:43;;;;;;;13.43;11.43;;;2.50;99.90;;;;;;5074582;28;20393;-72
2023/01/18 08:56:09;;;;;;;12.50;10.30;;;2.30;99.90;;;;;;5059789;28;20763;-72
2023/01/18 08:58:34;;;;;;;11.97;9.70;;;2.20;99.90;;;;;;5035576;28;20459;-70
2023/01/18 09:01:07;;;;;;;12.37;9.60;;;2.30;99.90;;;;;;5054815;28;20988;-70
2023/01/18 09:03:34;;;;;;;10.50;8.37;;;2.50;99.90;;;;;;5065235;28;20205;-70
2023/01/18 09:06:00;;;;;;;11.10;8.23;;;2.40;99.90;;;;;;5074285;28;20861;-71
2023/01/18 09:08:27;;;;;;;8.77;7.87;;;2.40;99.90;;;;;;5072451;28;20455;-73
2023/01/18 09:10:53;;;;;;;8.87;8.07;;;2.40;99.90;;;;;;5074247;28;20807;-71
2023/01/18 09:13:19;;;;;;;9.90;7.80;;;2.40;99.90;;;;;;5074487;28;20495;-69
2023/01/18 09:15:48;;;;;;;9.00;8.10;;;2.50;99.90;;;;;;5074223;28;20428;-69
2023/01/18 09:18:13;;;;;;;8.77;7.80;;;2.50;99.90;;;;;;5073815;28;20527;-69
2023/01/18 09:20:39;;;;;;;8.60;7.57;;;2.40;99.90;;;;;;5074179;28;20546;-69
2023/01/18 09:23:09;;;;;;;8.73;7.93;;;2.50;99.90;;;;;;5056261;28;20651;-69
2023/01/18 09:25:35;;;;;;;7.90;7.20;;;2.50;99.90;;;;;;5074495;28;20182;-69
2023/01/18 09:28:02;;;;;;;11.53;8.07;;;2.40;99.90;;;;;;5074615;28;20401;-69
2023/01/18 09:30:28;;;;;;;8.43;7.00;;;2.50;99.90;;;;;;5073879;28;20407;-68
2023/01/18 09:32:56;;;;;;;9.43;8.53;;;2.50;99.90;;;;;;5074053;28;20929;-71
2023/01/18 09:35:21;;;;;;;9.40;8.40;;;2.60;99.90;;;;;;5073527;28;20423;-71
2023/01/18 09:37:47;;;;;;;8.43;7.60;;;2.70;99.90;;;;;;5073264;28;20957;-70
2023/01/18 09:40:19;;;;;;;9.53;8.53;;;2.60;99.90;;;;;;5073996;28;20201;-69
2023/01/18 09:42:47;;;;;;;8.20;7.17;;;2.70;99.90;;;;;;5073573;28;20169;-69
2023/01/18 09:45:29;;;;;;;9.40;8.50;;;2.50;99.90;;;;;;5073645;28;20432;-69
2023/01/18 09:48:02;;;;;;;9.50;8.53;;;2.50;99.90;;;;;;5073907;28;20419;-69
2023/01/18 09:50:31;;;;;;;10.00;8.97;;;2.50;99.90;;;;;;5055316;28;20416;-69
2023/01/18 09:53:21;;;;;;;9.87;8.87;;;2.60;99.90;;;;;;5072965;28;20397;-71
2023/01/18 09:56:10;;;;;;;9.63;8.63;;;2.60;99.90;;;;;;5073436;28;20567;-70
2023/01/18 09:58:44;;;;;;;9.80;8.83;;;2.70;99.90;;;;;;5073776;28;20452;-70
2023/01/18 10:01:24;;;;;;;9.13;8.23;;;2.80;99.90;;;;;;5056018;28;20411;-70
2023/01/18 10:03:58;;;;;;;10.13;9.13;;;2.70;99.90;;;;;;5073519;28;20413;-71
2023/01/18 10:06:33;;;;;;;10.37;8.77;;;2.70;99.90;;;;;;5073760;28;20428;-70
2023/01/18 10:09:10;;;;;;;10.83;9.70;;;2.70;99.90;;;;;;5071431;28;20427;-70
2023/01/18 10:11:47;;;;;;;9.10;8.20;;;2.60;99.90;;;;;;5073120;28;20376;-71
2023/01/18 10:14:29;;;;;;;9.40;8.40;;;2.60;99.90;;;;;;5073610;28;20467;-72
2023/01/18 10:16:58;;;;;;;8.37;7.60;;;2.50;99.90;;;;;;5055027;28;20470;-72
2023/01/18 10:19:30;;;;;;;9.40;8.30;;;2.60;99.90;;;;;;5073079;28;20404;-69
2023/01/18 10:22:16;;;;;;;8.00;7.20;;;2.50;99.90;;;;;;5073197;28;20404;-69
2023/01/18 10:25:14;;;;;;;9.37;7.30;;;2.60;99.90;;;;;;5054540;28;20427;-69
2023/01/18 10:27:57;;;;;;;8.20;7.50;;;2.50;99.90;;;;;;5073884;28;20795;-71
2023/01/18 10:30:45;;;;;;;8.37;7.47;;;2.70;99.90;;;;;;5072971;28;20466;-71
2023/01/18 10:33:23;;;;;;;8.97;7.50;;;2.80;99.90;;;;;;5073457;28;20835;-70
2023/01/18 10:35:53;;;;;;;9.57;8.37;;;2.70;99.90;;;;;;5073666;28;20427;-71
2023/01/18 10:38:23;;;;;;;9.70;8.70;;;2.70;99.90;;;;;;5072681;28;20448;-71
2023/01/18 10:40:57;;;;;;;10.27;9.17;;;2.70;99.90;;;;;;5073449;28;20405;-71
2023/01/18 10:43:25;;;;;;;12.30;9.80;;;2.90;99.90;;;;;;5079009;28;20381;-70
2023/01/18 10:45:54;;;;;;;10.93;9.70;;;2.90;99.90;;;;;;5089416;28;20440;-70
2023/01/18 10:48:19;;;;;;;11.00;9.67;;;2.80;99.90;;;;;;5074195;28;20408;-70
2023/01/18 10:50:48;;;;;;;9.57;8.57;;;2.90;99.90;;;;;;5092204;28;20481;-71
2023/01/18 10:53:26;;;;;;;9.70;8.70;;;3.10;99.90;;;;;;5080949;28;20249;-72
2023/01/18 10:56:06;;;;;;;11.77;8.87;;;3.10;99.90;;;;;;5073025;28;20416;-70
2023/01/18 10:58:47;;;;;;;10.53;9.43;;;3.00;99.90;;;;;;5073916;28;20441;-69
2023/01/18 11:01:26;;;;;;;11.97;8.80;;;2.90;99.90;;;;;;5068624;28;20461;-70
2023/01/18 11:04:04;;;;;;;14.90;10.60;;;2.90;99.90;;;;;;5069807;28;20484;-69
2023/01/18 11:06:43;;;;;;;12.77;9.57;;;3.00;99.90;;;;;;5071175;28;20409;-70
2023/01/18 11:09:50;;;;;;;10.43;9.27;;;2.90;99.90;;;;;;5073008;28;20801;-70
2023/01/18 11:12:36;;;;;;;9.40;8.00;;;2.90;99.90;;;;;;5072911;28;20404;-70
2023/01/18 11:15:13;;;;;;;11.57;9.27;;;3.10;99.90;;;;;;5073269;28;20415;-70
2023/01/18 11:17:40;;;;;;;11.37;8.43;;;3.00;99.90;;;;;;5056022;28;20880;-70
2023/01/18 11:20:15;;;;;;;10.80;9.27;;;3.10;99.90;;;;;;5055247;28;20409;-71
2023/01/18 11:22:57;;;;;;;13.80;9.10;;;3.20;99.90;;;;;;5056877;28;20407;-71
2023/01/18 11:26:00;;;;;;;8.63;7.73;;;3.00;99.90;;;;;;5058501;28;20420;-71
2023/01/18 11:28:33;;;;;;;9.23;7.93;;;2.80;99.90;;;;;;4995381;28;20418;-71
2023/01/18 11:30:58;;;;;;;9.90;8.50;;;2.80;99.90;;;;;;5063891;28;20852;-70
2023/01/18 11:33:26;;;;;;;10.50;8.30;;;2.90;99.90;;;;;;5074874;28;20507;-70
2023/01/18 11:35:55;;;;;;;13.27;10.03;;;2.80;99.90;;;;;;5076045;28;20209;-71
2023/01/18 11:38:24;;;;;;;11.03;7.63;;;2.80;99.90;;;;;;5076228;28;20999;-71
2023/01/18 11:41:05;;;;;;;9.27;8.23;;;3.10;99.90;;;;;;5076013;28;20396;-71
2023/01/18 11:43:34;;;;;;;14.60;7.73;;;3.10;99.90;;;;;;5076267;28;20460;-71
2023/01/18 11:46:24;;;;;;;9.90;6.57;;;3.10;99.90;;;;;;5075923;28;20435;-71
2023/01/18 11:49:06;;;;;;;8.63;6.40;;;3.00;99.90;;;;;;5076120;28;20389;-71
2023/01/18 11:51:40;;;;;;;7.33;6.60;;;3.00;99.90;;;;;;5058637;28;20772;-71
2023/01/18 11:54:29;;;;;;;8.00;6.87;;;2.90;99.90;;;;;;5076304;28;20413;-71
2023/01/18 11:57:01;;;;;;;7.87;6.90;;;3.10;99.90;;;;;;5075783;28;20424;-71
2023/01/18 11:59:34;;;;;;;9.53;7.33;;;3.30;99.90;;;;;;5077133;28;20385;-71
2023/01/18 12:02:09;;;;;;;7.47;6.43;;;3.20;99.90;;;;;;5076856;28;20403;-70
2023/01/18 12:04:59;;;;;;;7.47;6.63;;;3.30;99.90;;;;;;5075656;28;20419;-70
2023/01/18 12:07:42;;;;;;;8.63;6.10;;;3.30;99.90;;;;;;5075628;28;20381;-70
2023/01/18 12:10:17;;;;;;;7.63;6.47;;;3.20;99.90;;;;;;5073779;28;20420;-70
2023/01/18 12:13:08;;;;;;;6.50;5.57;;;3.20;99.90;;;;;;5075698;28;20388;-71
2023/01/18 12:15:37;;;;;;;6.30;5.60;;;3.40;99.90;;;;;;5075515;28;20424;-71
2023/01/18 12:18:15;;;;;;;8.17;6.10;;;3.50;99.90;;;;;;5075392;28;20436;-71
2023/01/18 12:21:23;;;;;;;8.30;6.00;;;3.60;99.90;;;;;;5075322;28;20385;-70
2023/01/18 12:24:20;;;;;;;6.40;5.70;;;3.50;99.90;;;;;;5075140;28;20389;-70
2023/01/18 12:26:49;;;;;;;6.40;5.80;;;3.30;99.90;;;;;;5043768;28;20444;-70
2023/01/18 12:29:39;;;;;;;7.33;5.67;;;3.40;99.90;;;;;;5075314;28;20396;-70
2023/01/18 12:32:33;;;;;;;8.00;6.00;;;3.50;99.90;;;;;;5075441;28;20471;-70
2023/01/18 12:35:05;;;;;;;8.20;6.33;;;3.60;99.90;;;;;;5075307;28;20930;-71
2023/01/18 12:38:01;;;;;;;8.07;7.13;;;3.70;99.90;;;;;;5075375;28;20425;-71
2023/01/18 12:40:57;;;;;;;6.10;5.43;;;3.60;99.90;;;;;;5074970;28;20469;-71
2023/01/18 12:43:53;;;;;;;7.53;5.87;;;3.60;99.90;;;;;;5074877;28;20378;-74
2023/01/18 12:46:39;;;;;;;6.60;6.00;;;3.20;99.90;;;;;;5053998;28;20429;-73
2023/01/18 12:49:16;;;;;;;6.80;5.53;;;3.40;99.90;;;;;;5055297;28;20385;-73
2023/01/18 12:51:42;;;;;;;9.60;6.87;;;3.30;99.90;;;;;;5055125;28;20431;-73
2023/01/18 12:54:27;;;;;;;8.47;5.83;;;3.20;99.90;;;;;;5055098;28;20798;-72
2023/01/18 12:56:55;;;;;;;7.23;6.27;;;3.20;99.90;;;;;;5036932;28;20498;-72
2023/01/18 12:59:32;;;;;;;9.90;5.60;;;3.30;99.90;;;;;;5054984;28;20405;-73
2023/01/18 13:02:20;;;;;;;7.10;6.00;;;3.40;99.90;;;;;;5054827;28;20381;-70
2023/01/18 13:05:00;;;;;;;7.37;5.97;;;3.60;99.90;;;;;;5054509;28;20422;-69
2023/01/18 13:07:38;;;;;;;9.90;5.63;;;3.60;99.90;;;;;;5051528;28;20421;-69
2023/01/18 13:10:11;;;;;;;8.00;5.50;;;3.80;99.90;;;;;;5054437;28;20507;-69
2023/01/18 13:12:37;;;;;;;7.43;5.33;;;3.90;99.90;;;;;;5068030;28;20779;-69
2023/01/18 13:15:33;;;;;;;6.00;5.17;;;3.70;99.90;;;;;;5074602;28;20424;-70
2023/01/18 13:18:26;;;;;;;8.77;6.40;;;3.80;99.90;;;;;;5074896;28;20311;-70
2023/01/18 13:21:15;;;;;;;10.17;6.90;;;3.70;99.90;;;;;;5052039;28;20413;-70
2023/01/18 13:24:09;;;;;;;10.47;8.40;;;3.80;99.90;;;;;;5074592;28;20437;-70
2023/01/18 13:26:35;;;;;;;8.10;5.07;;;3.70;99.90;;;;;;5074062;28;20814;-70
2023/01/18 13:29:21;;;;;;;7.27;5.73;;;3.80;99.90;;;;;;5073978;28;20457;-71
2023/01/18 13:31:48;;;;;;;11.63;8.30;;;4.00;99.90;;;;;;5074861;28;20376;-72
2023/01/18 13:34:37;;;;;;;16.27;8.80;;;3.90;99.90;;;;;;5073672;28;20991;-71
2023/01/18 13:37:05;;;;;;;7.80;6.83;;;3.90;99.90;;;;;;5074329;28;20432;-69
2023/01/18 13:39:42;;;;;;;6.93;5.07;;;3.90;99.90;;;;;;5074526;28;20506;-69
2023/01/18 13:42:23;;;;;;;9.37;5.63;;;3.90;99.90;;;;;;5073798;28;20494;-70